sensor_id;sensor_type;location;lat;lon;timestamp;temperature;humidity
13310;DHT22;6723;48.256;16.402;2023-04-04T00:00:21;2.40;76.20
13310;DHT22;6723;48.256;16.402;2023-04-04T00:02:48;2.40;76.50
13310;DHT22;6723;48.256;16.402;2023-04-04T00:05:13;2.40;76.20
13310;DHT22;6723;48.256;16.402;2023-04-04T00:07:39;2.40;76.10
13310;DHT22;6723;48.256;16.402;2023-04-04T00:10:06;2.40;75.70
13310;DHT22;6723;48.256;16.402;2023-04-04T00:12:31;2.30;76.00
13310;DHT22;6723;48.256;16.402;2023-04-04T00:14:57;2.30;75.90
13310;DHT22;6723;48.256;16.402;2023-04-04T00:17:23;2.30;75.90
13310;DHT22;6723;48.256;16.402;2023-04-04T00:19:49;2.30;75.90
13310;DHT22;6723;48.256;16.402;2023-04-04T00:22:16;2.30;76.20
13310;DHT22;6723;48.256;16.402;2023-04-04T00:24:43;2.20;76.00
13310;DHT22;6723;48.256;16.402;2023-04-04T00:27:09;2.20;76.20
13310;DHT22;6723;48.256;16.402;2023-04-04T00:29:35;2.20;76.40
13310;DHT22;6723;48.256;16.402;2023-04-04T00:32:02;2.20;76.70
13310;DHT22;6723;48.256;16.402;2023-04-04T00:34:28;2.20;76.90
13310;DHT22;6723;48.256;16.402;2023-04-04T00:36:54;2.10;77.30
13310;DHT22;6723;48.256;16.402;2023-04-04T00:39:20;2.10;77.70
13310;DHT22;6723;48.256;16.402;2023-04-04T00:41:48;2.10;78.00
13310;DHT22;6723;48.256;16.402;2023-04-04T00:44:14;2.10;78.50
13310;DHT22;6723;48.256;16.402;2023-04-04T00:46:40;2.10;79.00
13310;DHT22;6723;48.256;16.402;2023-04-04T00:49:06;2.00;79.70
13310;DHT22;6723;48.256;16.402;2023-04-04T00:51:32;2.00;79.90
13310;DHT22;6723;48.256;16.402;2023-04-04T00:53:58;2.00;80.30
13310;DHT22;6723;48.256;16.402;2023-04-04T00:56:24;2.00;80.50
13310;DHT22;6723;48.256;16.402;2023-04-04T00:58:50;1.90;80.60
13310;DHT22;6723;48.256;16.402;2023-04-04T01:01:16;2.00;81.10
13310;DHT22;6723;48.256;16.402;2023-04-04T01:03:42;2.00;81.40
13310;DHT22;6723;48.256;16.402;2023-04-04T01:06:10;1.90;81.50
13310;DHT22;6723;48.256;16.402;2023-04-04T01:08:36;1.90;81.80
13310;DHT22;6723;48.256;16.402;2023-04-04T01:11:05;1.90;81.90
13310;DHT22;6723;48.256;16.402;2023-04-04T01:13:32;1.90;81.60
13310;DHT22;6723;48.256;16.402;2023-04-04T01:15:58;1.80;81.40
13310;DHT22;6723;48.256;16.402;2023-04-04T01:18:26;1.90;81.60
13310;DHT22;6723;48.256;16.402;2023-04-04T01:21:02;1.80;81.70
13310;DHT22;6723;48.256;16.402;2023-04-04T01:26:24;1.80;81.70
13310;DHT22;6723;48.256;16.402;2023-04-04T01:28:52;1.80;81.70
13310;DHT22;6723;48.256;16.402;2023-04-04T01:32:10;1.80;81.50
13310;DHT22;6723;48.256;16.402;2023-04-04T01:34:16;1.80;81.40
13310;DHT22;6723;48.256;16.402;2023-04-04T01:37:15;1.90;82.10
13310;DHT22;6723;48.256;16.402;2023-04-04T01:39:53;1.90;81.10
13310;DHT22;6723;48.256;16.402;2023-04-04T01:42:22;1.90;81.10
13310;DHT22;6723;48.256;16.402;2023-04-04T01:44:54;2.00;80.80
13310;DHT22;6723;48.256;16.402;2023-04-04T01:47:39;2.00;80.80
13310;DHT22;6723;48.256;16.402;2023-04-04T01:50:10;2.00;80.40
13310;DHT22;6723;48.256;16.402;2023-04-04T01:52:36;2.00;80.40
13310;DHT22;6723;48.256;16.402;2023-04-04T01:55:03;2.00;80.20
13310;DHT22;6723;48.256;16.402;2023-04-04T01:57:30;2.00;79.90
13310;DHT22;6723;48.256;16.402;2023-04-04T01:59:56;2.00;80.00
13310;DHT22;6723;48.256;16.402;2023-04-04T02:02:21;2.00;80.00
13310;DHT22;6723;48.256;16.402;2023-04-04T02:04:47;1.90;79.90
13310;DHT22;6723;48.256;16.402;2023-04-04T02:07:13;1.90;80.10
13310;DHT22;6723;48.256;16.402;2023-04-04T02:09:40;1.90;80.00
13310;DHT22;6723;48.256;16.402;2023-04-04T02:12:07;1.80;80.10
13310;DHT22;6723;48.256;16.402;2023-04-04T02:14:33;1.80;80.40
13310;DHT22;6723;48.256;16.402;2023-04-04T02:17:00;1.80;80.10
13310;DHT22;6723;48.256;16.402;2023-04-04T02:19:26;1.80;80.10
13310;DHT22;6723;48.256;16.402;2023-04-04T02:21:51;1.70;80.20
13310;DHT22;6723;48.256;16.402;2023-04-04T02:24:17;1.70;80.50
13310;DHT22;6723;48.256;16.402;2023-04-04T02:26:43;1.70;80.90
13310;DHT22;6723;48.256;16.402;2023-04-04T02:29:09;1.60;80.70
13310;DHT22;6723;48.256;16.402;2023-04-04T02:31:34;1.60;80.70
13310;DHT22;6723;48.256;16.402;2023-04-04T02:34:00;1.50;80.70
13310;DHT22;6723;48.256;16.402;2023-04-04T02:36:26;1.50;81.10
13310;DHT22;6723;48.256;16.402;2023-04-04T02:38:53;1.50;81.40
13310;DHT22;6723;48.256;16.402;2023-04-04T02:41:19;1.40;81.40
13310;DHT22;6723;48.256;16.402;2023-04-04T02:43:45;1.40;81.50
13310;DHT22;6723;48.256;16.402;2023-04-04T02:46:11;1.40;81.70
13310;DHT22;6723;48.256;16.402;2023-04-04T02:48:37;1.30;81.80
13310;DHT22;6723;48.256;16.402;2023-04-04T02:51:05;1.30;82.00
13310;DHT22;6723;48.256;16.402;2023-04-04T02:53:31;1.30;82.10
13310;DHT22;6723;48.256;16.402;2023-04-04T02:55:57;1.30;82.30
13310;DHT22;6723;48.256;16.402;2023-04-04T02:58:23;1.30;82.40
13310;DHT22;6723;48.256;16.402;2023-04-04T03:00:55;1.20;82.30
13310;DHT22;6723;48.256;16.402;2023-04-04T03:03:21;1.20;82.50
13310;DHT22;6723;48.256;16.402;2023-04-04T03:05:47;1.20;82.70
13310;DHT22;6723;48.256;16.402;2023-04-04T03:08:16;1.20;82.70
13310;DHT22;6723;48.256;16.402;2023-04-04T03:10:44;1.20;82.90
13310;DHT22;6723;48.256;16.402;2023-04-04T03:13:11;1.10;83.10
13310;DHT22;6723;48.256;16.402;2023-04-04T03:15:37;1.10;83.10
13310;DHT22;6723;48.256;16.402;2023-04-04T03:18:03;1.10;83.30
13310;DHT22;6723;48.256;16.402;2023-04-04T03:20:29;1.10;83.40
13310;DHT22;6723;48.256;16.402;2023-04-04T03:22:56;1.10;83.60
13310;DHT22;6723;48.256;16.402;2023-04-04T03:25:23;1.00;83.50
13310;DHT22;6723;48.256;16.402;2023-04-04T03:27:51;1.00;83.50
13310;DHT22;6723;48.256;16.402;2023-04-04T03:30:17;1.00;83.60
13310;DHT22;6723;48.256;16.402;2023-04-04T03:32:42;1.00;83.90
13310;DHT22;6723;48.256;16.402;2023-04-04T03:35:09;0.90;83.90
13310;DHT22;6723;48.256;16.402;2023-04-04T03:37:34;0.90;84.10
13310;DHT22;6723;48.256;16.402;2023-04-04T03:40:00;0.90;84.30
13310;DHT22;6723;48.256;16.402;2023-04-04T03:42:26;0.90;84.20
13310;DHT22;6723;48.256;16.402;2023-04-04T03:44:52;0.90;84.30
13310;DHT22;6723;48.256;16.402;2023-04-04T03:47:19;0.90;84.20
13310;DHT22;6723;48.256;16.402;2023-04-04T03:49:45;0.80;84.10
13310;DHT22;6723;48.256;16.402;2023-04-04T03:52:11;0.80;84.50
13310;DHT22;6723;48.256;16.402;2023-04-04T03:54:37;0.80;84.70
13310;DHT22;6723;48.256;16.402;2023-04-04T03:57:04;0.80;84.80
13310;DHT22;6723;48.256;16.402;2023-04-04T03:59:30;0.80;84.90
13310;DHT22;6723;48.256;16.402;2023-04-04T04:01:56;0.70;85.10
13310;DHT22;6723;48.256;16.402;2023-04-04T04:04:22;0.70;85.10
13310;DHT22;6723;48.256;16.402;2023-04-04T04:06:48;0.60;85.30
13310;DHT22;6723;48.256;16.402;2023-04-04T04:09:14;0.60;85.50
13310;DHT22;6723;48.256;16.402;2023-04-04T04:11:40;0.60;85.70
13310;DHT22;6723;48.256;16.402;2023-04-04T04:14:06;0.60;85.90
13310;DHT22;6723;48.256;16.402;2023-04-04T04:16:32;0.60;86.00
13310;DHT22;6723;48.256;16.402;2023-04-04T04:18:57;0.60;86.20
13310;DHT22;6723;48.256;16.402;2023-04-04T04:21:24;0.50;86.20
13310;DHT22;6723;48.256;16.402;2023-04-04T04:23:51;0.50;86.30
13310;DHT22;6723;48.256;16.402;2023-04-04T04:26:17;0.50;86.30
13310;DHT22;6723;48.256;16.402;2023-04-04T04:28:43;0.50;86.40
13310;DHT22;6723;48.256;16.402;2023-04-04T04:31:17;0.50;86.30
13310;DHT22;6723;48.256;16.402;2023-04-04T04:34:05;0.50;86.00
13310;DHT22;6723;48.256;16.402;2023-04-04T04:36:31;0.50;85.80
13310;DHT22;6723;48.256;16.402;2023-04-04T04:38:58;0.50;85.70
13310;DHT22;6723;48.256;16.402;2023-04-04T04:41:23;0.50;85.20
13310;DHT22;6723;48.256;16.402;2023-04-04T04:43:50;0.50;84.70
13310;DHT22;6723;48.256;16.402;2023-04-04T04:46:18;0.60;84.10
13310;DHT22;6723;48.256;16.402;2023-04-04T04:48:44;0.60;83.90
13310;DHT22;6723;48.256;16.402;2023-04-04T04:51:09;0.60;83.50
13310;DHT22;6723;48.256;16.402;2023-04-04T04:53:35;0.70;83.60
13310;DHT22;6723;48.256;16.402;2023-04-04T04:56:01;0.70;83.20
13310;DHT22;6723;48.256;16.402;2023-04-04T04:58:28;0.80;82.90
13310;DHT22;6723;48.256;16.402;2023-04-04T05:00:54;0.80;82.50
13310;DHT22;6723;48.256;16.402;2023-04-04T05:03:23;0.90;82.40
13310;DHT22;6723;48.256;16.402;2023-04-04T05:05:50;0.90;82.30
13310;DHT22;6723;48.256;16.402;2023-04-04T05:08:16;1.00;82.10
13310;DHT22;6723;48.256;16.402;2023-04-04T05:10:42;1.00;82.00
13310;DHT22;6723;48.256;16.402;2023-04-04T05:13:08;1.00;81.70
13310;DHT22;6723;48.256;16.402;2023-04-04T05:15:35;1.10;81.10
13310;DHT22;6723;48.256;16.402;2023-04-04T05:18:01;1.20;80.70
13310;DHT22;6723;48.256;16.402;2023-04-04T05:20:27;1.30;80.50
13310;DHT22;6723;48.256;16.402;2023-04-04T05:22:53;1.30;79.70
13310;DHT22;6723;48.256;16.402;2023-04-04T05:25:19;1.40;79.30
13310;DHT22;6723;48.256;16.402;2023-04-04T05:27:53;1.40;79.00
13310;DHT22;6723;48.256;16.402;2023-04-04T05:30:20;1.50;79.00
13310;DHT22;6723;48.256;16.402;2023-04-04T05:32:46;1.50;78.30
13310;DHT22;6723;48.256;16.402;2023-04-04T05:35:12;1.60;78.20
13310;DHT22;6723;48.256;16.402;2023-04-04T05:37:38;1.60;77.90
13310;DHT22;6723;48.256;16.402;2023-04-04T05:40:06;1.70;77.40
13310;DHT22;6723;48.256;16.402;2023-04-04T05:42:32;1.80;78.00
13310;DHT22;6723;48.256;16.402;2023-04-04T05:44:59;1.90;77.10
13310;DHT22;6723;48.256;16.402;2023-04-04T05:47:25;1.90;76.90
13310;DHT22;6723;48.256;16.402;2023-04-04T05:49:50;2.00;77.00
13310;DHT22;6723;48.256;16.402;2023-04-04T05:52:16;2.10;76.70
13310;DHT22;6723;48.256;16.402;2023-04-04T05:54:42;2.20;76.30
13310;DHT22;6723;48.256;16.402;2023-04-04T05:57:08;2.40;76.60
13310;DHT22;6723;48.256;16.402;2023-04-04T05:59:33;2.40;76.10
13310;DHT22;6723;48.256;16.402;2023-04-04T06:01:59;2.40;75.80
13310;DHT22;6723;48.256;16.402;2023-04-04T06:04:25;2.50;76.00
13310;DHT22;6723;48.256;16.402;2023-04-04T06:06:51;2.50;75.90
13310;DHT22;6723;48.256;16.402;2023-04-04T06:09:17;2.60;75.80
13310;DHT22;6723;48.256;16.402;2023-04-04T06:11:42;2.70;75.10
13310;DHT22;6723;48.256;16.402;2023-04-04T06:14:08;2.90;75.30
13310;DHT22;6723;48.256;16.402;2023-04-04T06:16:35;2.90;74.90
13310;DHT22;6723;48.256;16.402;2023-04-04T06:19:01;3.00;74.50
13310;DHT22;6723;48.256;16.402;2023-04-04T06:21:27;3.00;74.10
13310;DHT22;6723;48.256;16.402;2023-04-04T06:23:53;3.20;74.30
13310;DHT22;6723;48.256;16.402;2023-04-04T06:26:19;3.20;73.90
13310;DHT22;6723;48.256;16.402;2023-04-04T06:28:51;3.30;73.40
13310;DHT22;6723;48.256;16.402;2023-04-04T06:31:17;3.40;73.50
13310;DHT22;6723;48.256;16.402;2023-04-04T06:33:43;3.40;73.00
13310;DHT22;6723;48.256;16.402;2023-04-04T06:36:09;3.60;73.00
13310;DHT22;6723;48.256;16.402;2023-04-04T06:38:35;3.70;72.60
13310;DHT22;6723;48.256;16.402;2023-04-04T06:41:01;3.60;72.70
13310;DHT22;6723;48.256;16.402;2023-04-04T06:43:27;3.80;72.40
13310;DHT22;6723;48.256;16.402;2023-04-04T06:45:53;3.90;72.50
13310;DHT22;6723;48.256;16.402;2023-04-04T06:48:19;4.00;71.70
13310;DHT22;6723;48.256;16.402;2023-04-04T06:50:45;4.00;72.00
13310;DHT22;6723;48.256;16.402;2023-04-04T06:53:11;4.30;71.70
13310;DHT22;6723;48.256;16.402;2023-04-04T06:55:38;4.40;71.10
13310;DHT22;6723;48.256;16.402;2023-04-04T06:58:04;4.40;70.80
13310;DHT22;6723;48.256;16.402;2023-04-04T07:00:29;4.60;71.10
13310;DHT22;6723;48.256;16.402;2023-04-04T07:02:59;4.90;70.40
13310;DHT22;6723;48.256;16.402;2023-04-04T07:05:26;5.20;69.70
13310;DHT22;6723;48.256;16.402;2023-04-04T07:07:53;5.60;69.70
13310;DHT22;6723;48.256;16.402;2023-04-04T07:10:23;6.90;67.90
13310;DHT22;6723;48.256;16.402;2023-04-04T07:12:49;7.70;66.30
13310;DHT22;6723;48.256;16.402;2023-04-04T07:15:16;8.50;64.50
13310;DHT22;6723;48.256;16.402;2023-04-04T07:17:42;9.20;63.60
13310;DHT22;6723;48.256;16.402;2023-04-04T07:20:08;10.00;60.60
13310;DHT22;6723;48.256;16.402;2023-04-04T07:22:37;10.50;60.00
13310;DHT22;6723;48.256;16.402;2023-04-04T07:25:04;11.90;58.60
13310;DHT22;6723;48.256;16.402;2023-04-04T07:27:30;11.60;57.90
13310;DHT22;6723;48.256;16.402;2023-04-04T07:29:56;12.50;56.80
13310;DHT22;6723;48.256;16.402;2023-04-04T07:32:22;12.50;56.20
13310;DHT22;6723;48.256;16.402;2023-04-04T07:34:49;12.80;55.70
13310;DHT22;6723;48.256;16.402;2023-04-04T07:37:15;12.90;54.50
13310;DHT22;6723;48.256;16.402;2023-04-04T07:39:41;12.50;54.00
13310;DHT22;6723;48.256;16.402;2023-04-04T07:42:07;12.10;54.10
13310;DHT22;6723;48.256;16.402;2023-04-04T07:44:33;11.70;53.90
13310;DHT22;6723;48.256;16.402;2023-04-04T07:46:59;12.40;54.40
13310;DHT22;6723;48.256;16.402;2023-04-04T07:49:24;12.80;54.60
13310;DHT22;6723;48.256;16.402;2023-04-04T07:51:50;12.80;54.20
13310;DHT22;6723;48.256;16.402;2023-04-04T07:54:16;12.40;54.00
13310;DHT22;6723;48.256;16.402;2023-04-04T07:56:42;13.00;53.10
13310;DHT22;6723;48.256;16.402;2023-04-04T07:59:08;12.80;54.00
13310;DHT22;6723;48.256;16.402;2023-04-04T08:01:33;11.80;52.10
13310;DHT22;6723;48.256;16.402;2023-04-04T08:03:59;10.90;52.70
13310;DHT22;6723;48.256;16.402;2023-04-04T08:06:25;11.40;53.50
13310;DHT22;6723;48.256;16.402;2023-04-04T08:08:51;11.30;52.40
13310;DHT22;6723;48.256;16.402;2023-04-04T08:11:17;12.10;53.20
13310;DHT22;6723;48.256;16.402;2023-04-04T08:13:43;12.00;52.80
13310;DHT22;6723;48.256;16.402;2023-04-04T08:16:09;12.40;52.50
13310;DHT22;6723;48.256;16.402;2023-04-04T08:18:35;12.70;53.00
13310;DHT22;6723;48.256;16.402;2023-04-04T08:21:00;13.10;51.90
13310;DHT22;6723;48.256;16.402;2023-04-04T08:23:26;12.70;50.70
13310;DHT22;6723;48.256;16.402;2023-04-04T08:25:54;12.60;52.00
13310;DHT22;6723;48.256;16.402;2023-04-04T08:28:19;12.50;49.40
13310;DHT22;6723;48.256;16.402;2023-04-04T08:30:45;12.20;50.70
13310;DHT22;6723;48.256;16.402;2023-04-04T08:33:11;11.90;51.00
13310;DHT22;6723;48.256;16.402;2023-04-04T08:35:37;11.70;50.90
13310;DHT22;6723;48.256;16.402;2023-04-04T08:38:03;11.50;51.50
13310;DHT22;6723;48.256;16.402;2023-04-04T08:40:33;11.00;51.60
13310;DHT22;6723;48.256;16.402;2023-04-04T08:42:58;11.10;52.70
13310;DHT22;6723;48.256;16.402;2023-04-04T08:45:27;11.00;51.70
13310;DHT22;6723;48.256;16.402;2023-04-04T08:47:57;10.60;52.30
13310;DHT22;6723;48.256;16.402;2023-04-04T08:50:27;10.70;52.60
13310;DHT22;6723;48.256;16.402;2023-04-04T08:52:55;10.60;52.20
13310;DHT22;6723;48.256;16.402;2023-04-04T08:55:21;10.70;52.30
13310;DHT22;6723;48.256;16.402;2023-04-04T08:57:47;10.50;52.70
13310;DHT22;6723;48.256;16.402;2023-04-04T09:00:14;11.10;52.70
13310;DHT22;6723;48.256;16.402;2023-04-04T09:02:53;11.00;51.40
13310;DHT22;6723;48.256;16.402;2023-04-04T09:05:23;10.40;51.90
13310;DHT22;6723;48.256;16.402;2023-04-04T09:07:50;9.70;53.30
13310;DHT22;6723;48.256;16.402;2023-04-04T09:10:17;9.70;54.40
13310;DHT22;6723;48.256;16.402;2023-04-04T09:12:45;9.70;53.30
13310;DHT22;6723;48.256;16.402;2023-04-04T09:15:12;9.10;52.80
13310;DHT22;6723;48.256;16.402;2023-04-04T09:17:39;9.20;53.80
13310;DHT22;6723;48.256;16.402;2023-04-04T09:22:59;10.60;53.10
13310;DHT22;6723;48.256;16.402;2023-04-04T09:25:25;10.90;53.40
13310;DHT22;6723;48.256;16.402;2023-04-04T09:27:51;10.50;51.90
13310;DHT22;6723;48.256;16.402;2023-04-04T09:30:22;10.80;52.80
13310;DHT22;6723;48.256;16.402;2023-04-04T09:32:49;11.30;52.70
13310;DHT22;6723;48.256;16.402;2023-04-04T09:35:15;10.80;51.90
13310;DHT22;6723;48.256;16.402;2023-04-04T09:37:42;10.90;52.60
13310;DHT22;6723;48.256;16.402;2023-04-04T09:40:09;11.10;52.30
13310;DHT22;6723;48.256;16.402;2023-04-04T09:42:35;11.30;52.30
13310;DHT22;6723;48.256;16.402;2023-04-04T09:45:01;11.80;51.50
13310;DHT22;6723;48.256;16.402;2023-04-04T09:47:28;11.90;50.80
13310;DHT22;6723;48.256;16.402;2023-04-04T09:50:05;11.90;50.60
13310;DHT22;6723;48.256;16.402;2023-04-04T09:52:33;12.20;51.50
13310;DHT22;6723;48.256;16.402;2023-04-04T09:55:03;12.10;52.00
13310;DHT22;6723;48.256;16.402;2023-04-04T09:57:34;12.90;51.50
13310;DHT22;6723;48.256;16.402;2023-04-04T10:00:04;12.40;49.80
13310;DHT22;6723;48.256;16.402;2023-04-04T10:02:36;12.60;50.90
13310;DHT22;6723;48.256;16.402;2023-04-04T10:05:04;11.80;49.60
13310;DHT22;6723;48.256;16.402;2023-04-04T10:07:31;11.00;50.00
13310;DHT22;6723;48.256;16.402;2023-04-04T10:10:00;10.90;50.00
13310;DHT22;6723;48.256;16.402;2023-04-04T10:12:27;10.60;51.60
13310;DHT22;6723;48.256;16.402;2023-04-04T10:14:57;11.00;52.70
13310;DHT22;6723;48.256;16.402;2023-04-04T10:17:35;10.70;51.10
13310;DHT22;6723;48.256;16.402;2023-04-04T10:20:06;10.40;50.80
13310;DHT22;6723;48.256;16.402;2023-04-04T10:22:34;10.60;52.10
13310;DHT22;6723;48.256;16.402;2023-04-04T10:25:01;11.30;52.80
13310;DHT22;6723;48.256;16.402;2023-04-04T10:27:28;11.50;51.00
13310;DHT22;6723;48.256;16.402;2023-04-04T10:29:54;11.90;50.80
13310;DHT22;6723;48.256;16.402;2023-04-04T10:35:04;11.80;49.60
13310;DHT22;6723;48.256;16.402;2023-04-04T10:37:38;12.50;51.40
13310;DHT22;6723;48.256;16.402;2023-04-04T10:40:12;12.30;49.40
13310;DHT22;6723;48.256;16.402;2023-04-04T10:42:44;12.80;50.30
13310;DHT22;6723;48.256;16.402;2023-04-04T10:45:13;13.70;50.30
13310;DHT22;6723;48.256;16.402;2023-04-04T10:47:40;14.00;49.30
13310;DHT22;6723;48.256;16.402;2023-04-04T10:50:07;13.60;49.30
13310;DHT22;6723;48.256;16.402;2023-04-04T10:52:40;13.10;48.20
13310;DHT22;6723;48.256;16.402;2023-04-04T10:55:10;12.80;48.90
13310;DHT22;6723;48.256;16.402;2023-04-04T10:57:47;12.60;50.50
13310;DHT22;6723;48.256;16.402;2023-04-04T11:00:19;12.80;50.70
13310;DHT22;6723;48.256;16.402;2023-04-04T11:05:36;11.80;50.50
13310;DHT22;6723;48.256;16.402;2023-04-04T11:08:09;11.40;51.70
13310;DHT22;6723;48.256;16.402;2023-04-04T11:10:42;11.90;52.10
13310;DHT22;6723;48.256;16.402;2023-04-04T11:16:01;12.10;50.50
13310;DHT22;6723;48.256;16.402;2023-04-04T11:21:18;12.20;50.20
13310;DHT22;6723;48.256;16.402;2023-04-04T11:29:02;10.80;50.80
13310;DHT22;6723;48.256;16.402;2023-04-04T11:31:33;11.50;51.10
13310;DHT22;6723;48.256;16.402;2023-04-04T11:34:11;11.70;50.90
13310;DHT22;6723;48.256;16.402;2023-04-04T11:39:24;12.80;50.90
13310;DHT22;6723;48.256;16.402;2023-04-04T11:44:21;12.50;50.20
13310;DHT22;6723;48.256;16.402;2023-04-04T11:46:54;13.30;50.80
13310;DHT22;6723;48.256;16.402;2023-04-04T11:49:25;13.30;48.40
13310;DHT22;6723;48.256;16.402;2023-04-04T11:51:54;12.90;48.30
13310;DHT22;6723;48.256;16.402;2023-04-04T11:54:20;12.40;48.00
13310;DHT22;6723;48.256;16.402;2023-04-04T11:56:46;12.30;47.40
13310;DHT22;6723;48.256;16.402;2023-04-04T11:59:17;12.60;47.10
13310;DHT22;6723;48.256;16.402;2023-04-04T12:01:44;12.90;47.70
13310;DHT22;6723;48.256;16.402;2023-04-04T12:04:10;13.10;47.30
13310;DHT22;6723;48.256;16.402;2023-04-04T12:06:40;13.70;47.20
13310;DHT22;6723;48.256;16.402;2023-04-04T12:09:09;13.70;45.40
13310;DHT22;6723;48.256;16.402;2023-04-04T12:11:37;13.40;45.90
13310;DHT22;6723;48.256;16.402;2023-04-04T12:14:04;13.10;47.40
13310;DHT22;6723;48.256;16.402;2023-04-04T12:16:34;13.10;47.00
13310;DHT22;6723;48.256;16.402;2023-04-04T12:19:02;12.90;47.80
13310;DHT22;6723;48.256;16.402;2023-04-04T12:21:30;13.50;48.40
13310;DHT22;6723;48.256;16.402;2023-04-04T12:23:57;13.30;46.40
13310;DHT22;6723;48.256;16.402;2023-04-04T12:26:24;14.00;47.40
13310;DHT22;6723;48.256;16.402;2023-04-04T12:28:57;13.80;45.90
13310;DHT22;6723;48.256;16.402;2023-04-04T12:31:28;13.60;46.50
13310;DHT22;6723;48.256;16.402;2023-04-04T12:33:54;13.20;46.40
13310;DHT22;6723;48.256;16.402;2023-04-04T12:36:20;12.90;46.20
13310;DHT22;6723;48.256;16.402;2023-04-04T12:39:01;12.90;46.50
13310;DHT22;6723;48.256;16.402;2023-04-04T12:41:29;12.60;46.20
13310;DHT22;6723;48.256;16.402;2023-04-04T12:44:02;12.60;46.40
13310;DHT22;6723;48.256;16.402;2023-04-04T12:49:09;12.30;47.90
13310;DHT22;6723;48.256;16.402;2023-04-04T12:51:36;12.30;47.90
13310;DHT22;6723;48.256;16.402;2023-04-04T12:54:05;12.40;48.30
13310;DHT22;6723;48.256;16.402;2023-04-04T12:56:34;12.60;47.50
13310;DHT22;6723;48.256;16.402;2023-04-04T12:59:02;12.40;46.70
13310;DHT22;6723;48.256;16.402;2023-04-04T13:01:32;12.30;46.70
13310;DHT22;6723;48.256;16.402;2023-04-04T13:04:02;12.30;46.00
13310;DHT22;6723;48.256;16.402;2023-04-04T13:06:31;12.50;46.90
13310;DHT22;6723;48.256;16.402;2023-04-04T13:08:57;12.00;45.80
13310;DHT22;6723;48.256;16.402;2023-04-04T13:11:24;12.10;46.60
13310;DHT22;6723;48.256;16.402;2023-04-04T13:14:01;12.20;47.40
13310;DHT22;6723;48.256;16.402;2023-04-04T13:16:30;12.30;47.20
13310;DHT22;6723;48.256;16.402;2023-04-04T13:18:56;12.30;47.80
13310;DHT22;6723;48.256;16.402;2023-04-04T13:21:22;11.90;47.40
13310;DHT22;6723;48.256;16.402;2023-04-04T13:23:48;11.80;48.00
13310;DHT22;6723;48.256;16.402;2023-04-04T13:26:14;11.90;47.50
13310;DHT22;6723;48.256;16.402;2023-04-04T13:28:40;12.00;47.90
13310;DHT22;6723;48.256;16.402;2023-04-04T13:31:07;12.10;47.80
13310;DHT22;6723;48.256;16.402;2023-04-04T13:33:33;11.90;47.60
13310;DHT22;6723;48.256;16.402;2023-04-04T13:36:00;11.80;47.10
13310;DHT22;6723;48.256;16.402;2023-04-04T13:38:27;11.70;47.20
13310;DHT22;6723;48.256;16.402;2023-04-04T13:40:54;11.50;47.40
13310;DHT22;6723;48.256;16.402;2023-04-04T13:43:21;11.60;48.20
13310;DHT22;6723;48.256;16.402;2023-04-04T13:45:47;11.60;48.10
13310;DHT22;6723;48.256;16.402;2023-04-04T13:48:13;11.80;48.10
13310;DHT22;6723;48.256;16.402;2023-04-04T13:50:40;11.60;47.80
13310;DHT22;6723;48.256;16.402;2023-04-04T13:53:08;10.90;48.60
13310;DHT22;6723;48.256;16.402;2023-04-04T13:55:36;10.80;48.90
13310;DHT22;6723;48.256;16.402;2023-04-04T13:58:02;11.00;49.20
13310;DHT22;6723;48.256;16.402;2023-04-04T14:00:27;11.10;48.40
13310;DHT22;6723;48.256;16.402;2023-04-04T14:02:54;10.90;48.30
13310;DHT22;6723;48.256;16.402;2023-04-04T14:05:21;10.50;48.30
13310;DHT22;6723;48.256;16.402;2023-04-04T14:07:47;10.30;48.60
13310;DHT22;6723;48.256;16.402;2023-04-04T14:10:13;10.40;48.70
13310;DHT22;6723;48.256;16.402;2023-04-04T14:12:39;10.40;48.80
13310;DHT22;6723;48.256;16.402;2023-04-04T14:15:05;10.20;49.30
13310;DHT22;6723;48.256;16.402;2023-04-04T14:17:34;10.50;49.30
13310;DHT22;6723;48.256;16.402;2023-04-04T14:20:02;10.50;49.50
13310;DHT22;6723;48.256;16.402;2023-04-04T14:22:28;10.60;49.80
13310;DHT22;6723;48.256;16.402;2023-04-04T14:24:54;10.70;49.40
13310;DHT22;6723;48.256;16.402;2023-04-04T14:27:19;10.40;48.90
13310;DHT22;6723;48.256;16.402;2023-04-04T14:29:45;10.20;49.30
13310;DHT22;6723;48.256;16.402;2023-04-04T14:32:11;10.10;48.90
13310;DHT22;6723;48.256;16.402;2023-04-04T14:34:37;10.20;49.50
13310;DHT22;6723;48.256;16.402;2023-04-04T14:37:04;10.30;49.40
13310;DHT22;6723;48.256;16.402;2023-04-04T14:39:29;10.30;49.40
13310;DHT22;6723;48.256;16.402;2023-04-04T14:41:55;10.10;49.00
13310;DHT22;6723;48.256;16.402;2023-04-04T14:44:21;10.10;48.70
13310;DHT22;6723;48.256;16.402;2023-04-04T14:46:49;9.90;49.90
13310;DHT22;6723;48.256;16.402;2023-04-04T14:49:16;9.90;50.10
13310;DHT22;6723;48.256;16.402;2023-04-04T14:51:42;9.90;50.00
13310;DHT22;6723;48.256;16.402;2023-04-04T14:54:08;9.90;49.90
13310;DHT22;6723;48.256;16.402;2023-04-04T14:56:34;9.90;50.00
13310;DHT22;6723;48.256;16.402;2023-04-04T14:59:00;9.90;50.50
13310;DHT22;6723;48.256;16.402;2023-04-04T15:01:29;10.10;50.40
13310;DHT22;6723;48.256;16.402;2023-04-04T15:03:55;10.00;50.00
13310;DHT22;6723;48.256;16.402;2023-04-04T15:06:21;10.10;49.80
13310;DHT22;6723;48.256;16.402;2023-04-04T15:08:47;10.00;49.80
13310;DHT22;6723;48.256;16.402;2023-04-04T15:11:13;9.80;51.00
13310;DHT22;6723;48.256;16.402;2023-04-04T15:13:42;9.70;51.20
13310;DHT22;6723;48.256;16.402;2023-04-04T15:16:08;9.90;51.50
13310;DHT22;6723;48.256;16.402;2023-04-04T15:18:34;9.90;51.30
13310;DHT22;6723;48.256;16.402;2023-04-04T15:21:03;9.90;50.90
13310;DHT22;6723;48.256;16.402;2023-04-04T15:23:29;9.80;50.30
13310;DHT22;6723;48.256;16.402;2023-04-04T15:25:55;9.80;50.50
13310;DHT22;6723;48.256;16.402;2023-04-04T15:28:21;9.60;50.40
13310;DHT22;6723;48.256;16.402;2023-04-04T15:30:47;9.50;50.30
13310;DHT22;6723;48.256;16.402;2023-04-04T15:33:14;9.60;50.90
13310;DHT22;6723;48.256;16.402;2023-04-04T15:35:39;9.60;50.80
13310;DHT22;6723;48.256;16.402;2023-04-04T15:38:05;9.60;51.10
13310;DHT22;6723;48.256;16.402;2023-04-04T15:40:31;9.50;51.00
13310;DHT22;6723;48.256;16.402;2023-04-04T15:42:57;9.20;51.00
13310;DHT22;6723;48.256;16.402;2023-04-04T15:45:23;9.20;51.30
13310;DHT22;6723;48.256;16.402;2023-04-04T15:47:49;9.10;51.50
13310;DHT22;6723;48.256;16.402;2023-04-04T15:50:14;9.10;51.30
13310;DHT22;6723;48.256;16.402;2023-04-04T15:52:40;8.90;51.50
13310;DHT22;6723;48.256;16.402;2023-04-04T15:55:11;8.90;51.80
13310;DHT22;6723;48.256;16.402;2023-04-04T15:57:37;8.80;51.40
13310;DHT22;6723;48.256;16.402;2023-04-04T16:00:04;8.60;51.70
13310;DHT22;6723;48.256;16.402;2023-04-04T16:02:30;8.50;52.30
13310;DHT22;6723;48.256;16.402;2023-04-04T16:04:56;8.40;52.30
13310;DHT22;6723;48.256;16.402;2023-04-04T16:07:22;8.50;52.40
13310;DHT22;6723;48.256;16.402;2023-04-04T16:09:48;8.60;52.50